Time;durP1;ratioP1;P1;durP2;ratioP2;P2;SDS_P1;SDS_P2;PMS_P1;PMS_P2;Temp;Humidity;BMP_temperature;BMP_pressure;BME280_temperature;BME280_humidity;BME280_pressure;Samples;Min_cycle;Max_cycle;Signal;HPM_P1;HPM_P2
2023/09/18 00:00:25;;;;;;;16.40;14.70;;;;;;;19.06;100.00;100483.06;5045816;28;20112;-76
2023/09/18 00:02:51;;;;;;;15.65;13.70;;;;;;;19.05;100.00;100469.91;5029805;28;20125;-76
2023/09/18 00:05:16;;;;;;;16.02;14.52;;;;;;;19.05;100.00;100472.56;5031682;28;20021;-76
2023/09/18 00:07:46;;;;;;;15.77;14.18;;;;;;;19.03;100.00;100470.09;5029381;28;20029;-76
2023/09/18 00:10:13;;;;;;;16.20;14.20;;;;;;;19.00;100.00;100470.44;5029245;28;20044;-76
2023/09/18 00:12:40;;;;;;;15.07;13.57;;;;;;;19.00;100.00;100472.28;5029973;28;20053;-76
2023/09/18 00:15:08;;;;;;;16.08;14.45;;;;;;;19.01;100.00;100474.75;5030756;28;20393;-76
2023/09/18 00:17:35;;;;;;;16.92;14.27;;;;;;;18.99;100.00;100457.28;5032363;28;20033;-76
2023/09/18 00:20:00;;;;;;;18.85;13.75;;;;;;;19.03;100.00;100450.59;5033101;28;20030;-76
2023/09/18 00:22:26;;;;;;;15.32;13.88;;;;;;;19.03;100.00;100447.91;5031912;28;20040;-76
2023/09/18 00:24:51;;;;;;;14.95;13.32;;;;;;;19.03;100.00;100438.09;5030550;28;20017;-77
2023/09/18 00:27:17;;;;;;;14.70;12.48;;;;;;;19.04;100.00;100434.41;5031710;28;20075;-77
2023/09/18 00:29:42;;;;;;;15.75;12.90;;;;;;;19.05;100.00;100429.91;5018315;28;20014;-76
2023/09/18 00:32:08;;;;;;;13.90;12.45;;;;;;;19.06;100.00;100423.56;5028486;28;20038;-76
2023/09/18 00:34:33;;;;;;;16.45;12.25;;;;;;;19.05;100.00;100414.72;5016668;28;20041;-76
2023/09/18 00:37:02;;;;;;;13.40;12.10;;;;;;;19.06;100.00;100416.38;5013778;28;20029;-76
2023/09/18 00:39:28;;;;;;;12.90;11.45;;;;;;;19.05;100.00;100413.91;5015797;28;20339;-76
2023/09/18 00:41:54;;;;;;;15.48;11.55;;;;;;;19.06;100.00;100410.22;5016053;28;20041;-76
2023/09/18 00:44:23;;;;;;;13.38;12.02;;;;;;;19.07;100.00;100406.53;5013943;28;20085;-77
2023/09/18 00:46:49;;;;;;;13.48;11.27;;;;;;;19.04;100.00;100397.06;5014407;28;20016;-76
2023/09/18 00:49:18;;;;;;;13.15;11.57;;;;;;;19.06;100.00;100394.22;5012815;28;20029;-76
2023/09/18 00:51:44;;;;;;;12.63;11.43;;;;;;;19.06;100.00;100395.06;5013053;28;20549;-75
2023/09/18 00:54:15;;;;;;;13.23;11.90;;;;;;;19.09;100.00;100396.53;5017539;28;20025;-76
2023/09/18 00:56:41;;;;;;;14.23;10.32;;;;;;;19.12;100.00;100388.16;5034298;28;20488;-75
2023/09/18 00:59:08;;;;;;;12.45;10.70;;;;;;;19.09;100.00;100375.19;5032430;28;20026;-75
2023/09/18 01:01:34;;;;;;;12.43;10.70;;;;;;;19.14;100.00;100369.31;5034409;28;20029;-75
2023/09/18 01:03:59;;;;;;;14.85;10.80;;;;;;;19.13;100.00;100371.16;5032774;28;20099;-76
2023/09/18 01:06:27;;;;;;;12.18;10.13;;;;;;;19.15;100.00;100365.63;5032788;28;20496;-75
2023/09/18 01:08:54;;;;;;;14.10;10.18;;;;;;;19.16;100.00;100353.97;5031392;28;20021;-76
2023/09/18 01:11:28;;;;;;;12.13;10.90;;;;;;;19.15;100.00;100350.47;5031923;28;20025;-75
2023/09/18 01:14:15;;;;;;;12.45;10.20;;;;;;;19.18;100.00;100358.09;5032943;28;20393;-76
2023/09/18 01:16:50;;;;;;;12.90;9.98;;;;;;;19.16;100.00;100348.63;5033254;28;20452;-75
2023/09/18 01:19:16;;;;;;;12.10;10.80;;;;;;;19.14;100.00;100332.81;5033749;28;20014;-76
2023/09/18 01:21:46;;;;;;;11.45;9.55;;;;;;;19.13;100.00;100335.66;5035231;28;20036;-75
2023/09/18 01:24:12;;;;;;;12.25;10.18;;;;;;;19.14;100.00;100338.13;5033009;28;20436;-75
2023/09/18 01:26:37;;;;;;;14.27;9.60;;;;;;;19.13;100.00;100341.81;5034951;28;20033;-75
2023/09/18 01:29:02;;;;;;;12.60;9.10;;;;;;;19.16;100.00;100341.47;5025466;28;20030;-75
2023/09/18 01:31:28;;;;;;;12.57;9.07;;;;;;;19.18;100.00;100343.94;5015622;28;20088;-75
2023/09/18 01:33:58;;;;;;;11.57;8.55;;;;;;;19.20;100.00;100344.59;5012921;28;20029;-75
2023/09/18 01:36:25;;;;;;;11.23;8.93;;;;;;;19.19;100.00;100346.44;5014478;28;20076;-75
2023/09/18 01:38:51;;;;;;;10.32;8.55;;;;;;;19.21;100.00;100349.78;5012583;28;20057;-75
2023/09/18 01:41:16;;;;;;;13.25;9.07;;;;;;;19.25;100.00;100350.22;5013230;28;20781;-75
2023/09/18 01:43:42;;;;;;;11.25;8.52;;;;;;;19.25;100.00;100351.06;5013479;28;20046;-77
2023/09/18 01:46:07;;;;;;;11.45;8.32;;;;;;;19.25;100.00;100348.41;5027271;28;20065;-75
2023/09/18 01:48:33;;;;;;;15.85;8.45;;;;;;;19.28;100.00;100352.53;5010455;28;20064;-75
2023/09/18 01:50:58;;;;;;;11.70;8.30;;;;;;;19.28;100.00;100350.69;5012847;28;20075;-77
2023/09/18 01:53:24;;;;;;;13.63;8.20;;;;;;;19.27;100.00;100346.38;5027696;28;20104;-76
2023/09/18 01:55:49;;;;;;;12.63;8.60;;;;;;;19.28;100.00;100344.53;5029819;28;20478;-76
2023/09/18 01:58:19;;;;;;;12.32;8.00;;;;;;;19.27;100.00;100338.38;5031915;28;20033;-76
2023/09/18 02:00:44;;;;;;;11.57;8.20;;;;;;;19.27;100.00;100333.03;5031562;28;20017;-77
2023/09/18 02:03:10;;;;;;;11.70;8.15;;;;;;;19.27;100.00;100333.03;5030678;28;20032;-76
2023/09/18 02:05:36;;;;;;;13.82;7.65;;;;;;;19.27;100.00;100333.03;5032740;28;20064;-76
2023/09/18 02:08:02;;;;;;;11.65;7.85;;;;;;;19.27;100.00;100330.38;5031768;28;20033;-77
2023/09/18 02:10:28;;;;;;;10.75;7.72;;;;;;;19.26;100.00;100330.53;5046742;28;20071;-76
2023/09/18 02:12:53;;;;;;;13.13;7.82;;;;;;;19.28;100.00;100332.03;5046618;28;20025;-77
2023/09/18 02:15:18;;;;;;;12.02;7.65;;;;;;;19.28;100.00;100331.19;5031581;28;20021;-77
2023/09/18 02:17:44;;;;;;;12.40;7.60;;;;;;;19.27;100.00;100326.88;5032889;28;20061;-76
2023/09/18 02:20:11;;;;;;;14.65;7.72;;;;;;;19.28;100.00;100328.53;5031101;28;20128;-76
2023/09/18 02:22:39;;;;;;;9.13;7.57;;;;;;;19.25;100.00;100313.72;5033846;28;20128;-76
2023/09/18 02:25:06;;;;;;;11.20;7.30;;;;;;;19.26;100.00;100315.38;5046902;28;20025;-77
2023/09/18 02:27:31;;;;;;;11.93;7.50;;;;;;;19.27;100.00;100301.03;5033227;28;20033;-77
2023/09/18 02:29:56;;;;;;;9.77;7.15;;;;;;;19.27;100.00;100293.00;5016034;28;20171;-77
2023/09/18 02:32:22;;;;;;;10.52;7.25;;;;;;;19.25;100.00;100292.38;5027476;28;20024;-76
2023/09/18 02:34:47;;;;;;;11.02;7.20;;;;;;;19.26;100.00;100282.53;5012032;28;20040;-76
2023/09/18 02:37:12;;;;;;;9.07;7.45;;;;;;;19.25;100.00;100281.69;5025832;28;20021;-76
2023/09/18 02:39:38;;;;;;;8.77;6.82;;;;;;;19.22;100.00;100292.75;5013553;28;20060;-76
2023/09/18 02:42:03;;;;;;;11.18;6.90;;;;;;;19.25;100.00;100280.88;5010260;28;20022;-76
2023/09/18 02:44:30;;;;;;;10.55;7.03;;;;;;;19.22;100.00;100267.91;5025290;28;20399;-75
2023/09/18 02:46:56;;;;;;;12.13;7.28;;;;;;;19.20;100.00;100260.06;5012098;28;20049;-76
2023/09/18 02:49:21;;;;;;;9.68;6.97;;;;;;;19.19;100.00;100266.41;5012126;28;20026;-75
2023/09/18 02:51:47;;;;;;;10.15;6.95;;;;;;;19.19;100.00;100261.06;5010545;28;20028;-77
2023/09/18 02:54:12;;;;;;;14.30;7.15;;;;;;;19.22;100.00;100270.56;5014425;28;20021;-76
2023/09/18 02:56:38;;;;;;;17.55;8.18;;;;;;;19.20;100.00;100260.06;5031320;28;20022;-76
2023/09/18 02:59:03;;;;;;;15.43;7.00;;;;;;;19.24;100.00;100257.88;5046068;28;20192;-76
2023/09/18 03:01:29;;;;;;;14.75;7.03;;;;;;;19.28;100.00;100233.31;5045135;28;20037;-76
2023/09/18 03:03:54;;;;;;;13.73;7.00;;;;;;;19.27;100.00;100237.00;5030630;28;20028;-77
2023/09/18 03:06:20;;;;;;;10.18;7.20;;;;;;;19.28;100.00;100230.66;5030045;28;20233;-77
2023/09/18 03:08:45;;;;;;;11.60;6.95;;;;;;;19.26;100.00;100211.34;5045664;28;20045;-76
2023/09/18 03:11:12;;;;;;;14.32;7.35;;;;;;;19.26;100.00;100215.84;5029356;28;20029;-76
2023/09/18 03:13:44;;;;;;;12.93;7.43;;;;;;;19.23;100.00;100214.38;5030582;28;20032;-76
2023/09/18 03:16:11;;;;;;;12.45;7.05;;;;;;;19.25;100.00;100222.19;5030428;28;20180;-76
2023/09/18 03:18:37;;;;;;;14.25;7.70;;;;;;;19.21;100.00;100211.06;5030772;28;20444;-77
2023/09/18 03:21:02;;;;;;;10.90;6.90;;;;;;;19.20;100.00;100220.06;5030551;28;20025;-76
2023/09/18 03:23:27;;;;;;;15.10;8.02;;;;;;;19.22;100.00;100218.06;5030958;28;20029;-77
2023/09/18 03:25:53;;;;;;;15.05;7.68;;;;;;;19.20;100.00;100221.88;5030362;28;20029;-76
2023/09/18 03:28:18;;;;;;;12.00;6.95;;;;;;;19.21;100.00;100216.41;5029330;28;20379;-76
2023/09/18 03:30:44;;;;;;;13.90;7.55;;;;;;;19.19;100.00;100233.56;5012686;28;20099;-76
2023/09/18 03:33:13;;;;;;;17.85;7.75;;;;;;;19.18;100.00;100238.06;5011796;28;20029;-77
2023/09/18 03:35:49;;;;;;;11.43;7.00;;;;;;;19.20;100.00;100252.06;5013316;28;20037;-76
2023/09/18 03:38:15;;;;;;;12.85;7.20;;;;;;;19.22;100.00;100239.41;5012895;28;20025;-76
2023/09/18 03:40:41;;;;;;;13.10;7.28;;;;;;;19.23;100.00;100241.06;5012628;28;20054;-76
2023/09/18 03:43:08;;;;;;;13.77;7.53;;;;;;;19.23;100.00;100224.22;5009863;28;20080;-77
2023/09/18 03:45:33;;;;;;;15.93;7.55;;;;;;;19.25;100.00;100252.38;5012271;28;20049;-75
2023/09/18 03:48:00;;;;;;;11.30;7.07;;;;;;;19.26;100.00;100254.03;5009612;28;20478;-76
2023/09/18 03:50:27;;;;;;;11.05;7.90;;;;;;;19.25;100.00;100239.03;5012288;28;20038;-77
2023/09/18 03:52:53;;;;;;;17.63;8.02;;;;;;;19.27;100.00;100241.50;5009002;28;20074;-76
2023/09/18 03:55:19;;;;;;;9.63;7.47;;;;;;;19.28;100.00;100230.66;5010429;28;20056;-77
2023/09/18 03:57:48;;;;;;;11.85;7.72;;;;;;;19.27;100.00;100239.66;5025860;28;20037;-76
2023/09/18 04:00:14;;;;;;;11.27;7.22;;;;;;;19.28;100.00;100238.66;5009500;28;20037;-76
2023/09/18 04:02:39;;;;;;;11.93;8.15;;;;;;;19.29;100.00;100244.81;5009255;28;20034;-76
2023/09/18 04:05:05;;;;;;;12.85;8.00;;;;;;;19.26;100.00;100264.69;5011644;28;20109;-78
2023/09/18 04:07:31;;;;;;;11.68;7.90;;;;;;;19.26;100.00;100263.84;5028787;28;20398;-76
2023/09/18 04:09:57;;;;;;;11.15;7.53;;;;;;;19.25;100.00;100257.69;5016935;28;20124;-77
2023/09/18 04:12:22;;;;;;;10.55;8.18;;;;;;;19.24;100.00;100257.88;5017572;28;20473;-77
2023/09/18 04:14:47;;;;;;;15.50;8.52;;;;;;;19.24;100.00;100245.38;5016597;28;20103;-77
2023/09/18 04:17:15;;;;;;;18.17;8.60;;;;;;;19.23;100.00;100262.38;5017278;28;20486;-78
2023/09/18 04:19:40;;;;;;;16.08;8.38;;;;;;;19.22;100.00;100250.06;5018291;28;20105;-76
2023/09/18 04:22:06;;;;;;;13.02;8.23;;;;;;;19.21;100.00;100236.88;5015785;28;20457;-78
2023/09/18 04:24:35;;;;;;;14.98;9.65;;;;;;;19.22;100.00;100223.38;5019015;28;20034;-76
2023/09/18 04:27:01;;;;;;;14.80;9.13;;;;;;;19.19;100.00;100218.41;5016703;28;20033;-78
2023/09/18 04:29:27;;;;;;;13.52;8.80;;;;;;;19.17;100.00;100227.59;5027268;28;20587;-76
2023/09/18 04:31:53;;;;;;;15.40;8.95;;;;;;;19.18;100.00;100226.59;5036225;28;20021;-76
2023/09/18 04:34:19;;;;;;;11.77;8.95;;;;;;;19.19;100.00;100217.56;5036620;28;20025;-76
2023/09/18 04:36:45;;;;;;;12.60;9.45;;;;;;;19.17;100.00;100211.59;5034911;28;20026;-77
2023/09/18 04:39:11;;;;;;;15.82;9.18;;;;;;;19.15;100.00;100189.63;5036761;28;20100;-78
2023/09/18 04:41:37;;;;;;;10.23;8.88;;;;;;;19.14;100.00;100190.63;5036242;28;20045;-76
2023/09/18 04:44:04;;;;;;;12.00;8.82;;;;;;;19.13;100.00;100178.31;5034626;28;20056;-75
2023/09/18 04:46:31;;;;;;;15.73;9.00;;;;;;;19.10;100.00;100171.50;5035543;28;20554;-75
2023/09/18 04:48:57;;;;;;;14.30;9.25;;;;;;;19.10;100.00;100171.50;5035429;28;20029;-75
2023/09/18 04:51:22;;;;;;;14.70;9.38;;;;;;;19.09;100.00;100168.00;5033823;28;20436;-74
2023/09/18 04:53:47;;;;;;;13.48;9.93;;;;;;;19.09;100.00;100153.84;5035677;28;20018;-77
2023/09/18 04:56:18;;;;;;;13.05;10.00;;;;;;;19.05;100.00;100163.25;5015596;28;20112;-75
2023/09/18 04:58:43;;;;;;;16.33;9.70;;;;;;;19.05;100.00;100158.72;5030758;28;20057;-75
2023/09/18 05:01:10;;;;;;;15.73;10.07;;;;;;;19.04;100.00;100148.25;5015513;28;20517;-76
2023/09/18 05:03:37;;;;;;;12.68;9.75;;;;;;;19.02;100.00;100160.94;5016019;28;20105;-77
2023/09/18 05:06:04;;;;;;;11.00;9.82;;;;;;;18.99;100.00;100153.31;5016437;28;20034;-75
2023/09/18 05:08:29;;;;;;;13.88;10.00;;;;;;;18.98;100.00;100159.66;5031644;28;20499;-75
2023/09/18 05:10:56;;;;;;;14.38;9.30;;;;;;;18.95;100.00;100152.03;5015439;28;20026;-75
2023/09/18 05:13:22;;;;;;;17.67;9.70;;;;;;;18.96;100.00;100159.03;5019836;28;20038;-75
2023/09/18 05:15:47;;;;;;;15.00;9.70;;;;;;;18.94;100.00;100163.72;5017229;28;20516;-75
2023/09/18 05:18:13;;;;;;;13.30;8.98;;;;;;;18.93;100.00;100167.38;5032942;28;20091;-75
2023/09/18 05:20:39;;;;;;;14.13;7.78;;;;;;;18.89;100.00;100177.59;5028687;28;20030;-77
2023/09/18 05:23:05;;;;;;;11.77;7.40;;;;;;;18.88;100.00;100172.44;5014011;28;20092;-75
2023/09/18 05:25:31;;;;;;;11.05;6.50;;;;;;;18.87;100.00;100171.63;5012131;28;20061;-77
2023/09/18 05:27:59;;;;;;;9.35;5.68;;;;;;;18.85;100.00;100186.16;5012762;28;20036;-75
2023/09/18 05:30:30;;;;;;;8.70;5.15;;;;;;;18.84;100.00;100177.31;5032976;28;20022;-76
2023/09/18 05:32:56;;;;;;;8.02;4.70;;;;;;;18.84;100.00;100171.16;5032042;28;20029;-77
2023/09/18 05:35:23;;;;;;;6.22;4.47;;;;;;;18.83;100.00;100169.50;5033633;28;20203;-76
2023/09/18 05:37:56;;;;;;;9.57;4.50;;;;;;;18.81;100.00;100168.84;5034211;28;20582;-76
2023/09/18 05:40:22;;;;;;;7.78;4.10;;;;;;;18.80;100.00;100170.69;5032208;28;20028;-77
2023/09/18 05:42:47;;;;;;;5.38;3.50;;;;;;;18.80;100.00;100168.00;5033327;28;20041;-75
2023/09/18 05:45:17;;;;;;;6.32;3.50;;;;;;;18.78;100.00;100176.19;5047988;28;20028;-75
2023/09/18 05:47:42;;;;;;;4.93;3.17;;;;;;;18.79;100.00;100174.34;5031649;28;20029;-78
2023/09/18 05:50:14;;;;;;;8.10;2.97;;;;;;;18.74;100.00;100190.91;5032559;28;20047;-75
2023/09/18 05:52:46;;;;;;;6.45;2.78;;;;;;;18.75;100.00;100192.56;5030099;28;20105;-77
2023/09/18 05:55:13;;;;;;;7.18;2.50;;;;;;;18.73;100.00;100186.56;5020365;28;20037;-76
2023/09/18 05:57:38;;;;;;;5.43;2.83;;;;;;;18.74;100.00;100192.72;5010627;28;20034;-76
2023/09/18 06:00:06;;;;;;;5.57;2.30;;;;;;;18.72;100.00;100195.59;5011495;28;20112;-79
2023/09/18 06:02:31;;;;;;;5.90;2.35;;;;;;;18.71;100.00;100199.25;5012153;28;20490;-76
2023/09/18 06:05:01;;;;;;;5.47;2.28;;;;;;;18.72;100.00;100206.25;5012557;28;20025;-76
2023/09/18 06:07:29;;;;;;;4.13;2.17;;;;;;;18.71;100.00;100201.91;5011132;28;20433;-75
2023/09/18 06:09:56;;;;;;;10.50;2.35;;;;;;;18.70;100.00;100205.59;5011774;28;20075;-76
2023/09/18 06:12:22;;;;;;;5.03;2.10;;;;;;;18.69;100.00;100206.59;5010294;28;20494;-75
2023/09/18 06:14:52;;;;;;;5.03;2.10;;;;;;;18.67;100.00;100216.63;5026337;28;20033;-79
2023/09/18 06:17:18;;;;;;;3.13;2.00;;;;;;;18.67;100.00;100210.47;5012505;28;20561;-75
2023/09/18 06:19:45;;;;;;;5.45;2.03;;;;;;;18.65;100.00;100218.63;5012479;28;20034;-77
2023/09/18 06:22:10;;;;;;;4.43;1.88;;;;;;;18.65;100.00;100213.31;5012263;28;20038;-76
2023/09/18 06:24:35;;;;;;;6.00;1.90;;;;;;;18.66;100.00;100227.47;5012879;28;20061;-76
2023/09/18 06:27:04;;;;;;;3.13;1.80;;;;;;;18.64;100.00;100222.31;5012346;28;20033;-76
2023/09/18 06:29:33;;;;;;;3.15;1.80;;;;;;;18.62;100.00;100227.00;5023929;28;20029;-77
2023/09/18 06:31:59;;;;;;;4.40;1.98;;;;;;;18.62;100.00;100227.00;5031941;28;20386;-76
2023/09/18 06:34:25;;;;;;;4.10;1.60;;;;;;;18.61;100.00;100225.31;5032156;28;20028;-78
2023/09/18 06:36:50;;;;;;;3.63;2.10;;;;;;;18.61;100.00;100229.81;5031849;28;20450;-76
2023/09/18 06:39:16;;;;;;;3.50;1.90;;;;;;;18.62;100.00;100231.50;5031759;28;20112;-77
2023/09/18 06:41:41;;;;;;;5.22;1.70;;;;;;;18.65;100.00;100247.13;5046187;28;20520;-76
2023/09/18 06:44:07;;;;;;;4.05;1.77;;;;;;;18.66;100.00;100232.78;5030156;28;20049;-76
2023/09/18 06:46:32;;;;;;;4.72;1.75;;;;;;;18.68;100.00;100242.25;5031440;28;20488;-76
2023/09/18 06:48:59;;;;;;;3.97;1.90;;;;;;;18.71;100.00;100238.41;5030951;28;20056;-76
2023/09/18 06:51:28;;;;;;;4.65;2.10;;;;;;;18.71;100.00;100247.22;5031388;28;20024;-78
2023/09/18 06:53:53;;;;;;;4.82;1.95;;;;;;;18.76;100.00;100246.69;5030140;28;20040;-78
2023/09/18 06:56:19;;;;;;;6.00;2.00;;;;;;;18.77;100.00;100256.34;5010960;28;20022;-78
2023/09/18 06:58:47;;;;;;;6.70;2.15;;;;;;;18.78;100.00;100266.81;5010880;28;20401;-78
2023/09/18 07:01:15;;;;;;;3.83;1.75;;;;;;;18.78;100.00;100264.16;5009280;28;20025;-76
2023/09/18 07:03:40;;;;;;;5.30;2.25;;;;;;;18.79;100.00;100265.81;5010429;28;20052;-79
2023/09/18 07:06:06;;;;;;;3.60;2.08;;;;;;;18.82;100.00;100261.16;5010495;28;20097;-78
2023/09/18 07:08:32;;;;;;;3.67;1.88;;;;;;;18.82;100.00;100263.81;5010720;28;20118;-76
2023/09/18 07:10:58;;;;;;;5.65;2.17;;;;;;;18.82;100.00;100263.81;5009844;28;20072;-76
2023/09/18 07:13:23;;;;;;;5.45;1.85;;;;;;;18.79;100.00;100265.81;5010132;28;20025;-75
2023/09/18 07:15:48;;;;;;;3.70;1.75;;;;;;;18.84;100.00;100264.47;5010582;28;20045;-79
2023/09/18 07:18:14;;;;;;;6.10;2.33;;;;;;;18.85;100.00;100266.13;5009621;28;20095;-78
2023/09/18 07:20:46;;;;;;;5.43;2.17;;;;;;;18.84;100.00;100272.47;5027232;28;20445;-76
2023/09/18 07:23:11;;;;;;;4.47;1.70;;;;;;;18.86;100.00;100271.28;5015484;28;20091;-78
2023/09/18 07:25:40;;;;;;;5.95;2.17;;;;;;;18.85;100.00;100274.94;5011167;28;20072;-76
2023/09/18 07:28:06;;;;;;;4.47;2.03;;;;;;;18.87;100.00;100264.09;5010577;28;20386;-76
2023/09/18 07:30:31;;;;;;;4.03;1.92;;;;;;;18.92;100.00;100272.38;5031292;28;20029;-78
2023/09/18 07:32:57;;;;;;;4.32;2.08;;;;;;;18.92;100.00;100277.72;5029807;28;20026;-78
2023/09/18 07:35:23;;;;;;;4.45;1.98;;;;;;;18.97;100.00;100273.47;5030720;28;20032;-76
2023/09/18 07:37:49;;;;;;;3.17;1.85;;;;;;;18.96;100.00;100281.66;5029854;28;20021;-76
2023/09/18 07:40:17;;;;;;;5.93;1.90;;;;;;;18.98;100.00;100284.97;5029292;28;20021;-78
2023/09/18 07:42:45;;;;;;;5.63;2.13;;;;;;;18.96;100.00;100287.00;5029380;28;20064;-80
2023/09/18 07:45:14;;;;;;;3.20;1.90;;;;;;;19.00;100.00;100290.97;5030136;28;20112;-76
2023/09/18 07:47:39;;;;;;;2.80;1.83;;;;;;;19.05;100.00;100277.91;5029015;28;20025;-76
2023/09/18 07:50:06;;;;;;;3.53;1.92;;;;;;;19.08;100.00;100280.19;5028578;28;20026;-75
2023/09/18 07:52:31;;;;;;;4.93;2.10;;;;;;;19.16;100.00;100285.44;5029445;28;20022;-75
2023/09/18 07:54:58;;;;;;;4.38;2.00;;;;;;;19.20;100.00;100283.25;5020144;28;20051;-76
2023/09/18 07:57:24;;;;;;;1.95;1.73;;;;;;;19.23;100.00;100289.06;5008685;28;20021;-78
2023/09/18 07:59:49;;;;;;;3.70;2.00;;;;;;;19.26;100.00;100278.03;5009002;28;20025;-76
2023/09/18 08:02:15;;;;;;;3.67;1.80;;;;;;;19.24;100.00;100282.72;5009395;28;20022;-76
2023/09/18 08:04:43;;;;;;;4.63;1.98;;;;;;;19.21;100.00;100275.09;5009766;28;20026;-77
2023/09/18 08:07:09;;;;;;;6.35;1.90;;;;;;;19.22;100.00;100281.25;5008940;28;20091;-76
2023/09/18 08:09:36;;;;;;;3.17;1.70;;;;;;;19.20;100.00;100292.06;5010361;28;20033;-77
2023/09/18 08:12:03;;;;;;;3.30;1.65;;;;;;;19.17;100.00;100295.09;5009804;28;20193;-76
2023/09/18 08:14:28;;;;;;;3.75;1.80;;;;;;;19.18;100.00;100291.44;5009260;28;20025;-76
2023/09/18 08:17:01;;;;;;;3.17;1.70;;;;;;;19.19;100.00;100292.25;5009821;28;20036;-77
2023/09/18 08:19:26;;;;;;;5.03;2.08;;;;;;;19.19;100.00;100295.75;5008311;28;20474;-76
2023/09/18 08:21:59;;;;;;;4.88;1.90;;;;;;;19.26;100.00;100299.38;5009561;28;20026;-77
2023/09/18 08:24:25;;;;;;;4.57;1.98;;;;;;;19.33;100.00;100296.78;5010189;28;20026;-76
2023/09/18 08:26:51;;;;;;;5.00;1.70;;;;;;;19.44;100.00;100300.81;5009061;28;20030;-76
2023/09/18 08:29:21;;;;;;;3.83;1.95;;;;;;;19.56;100.00;100310.88;5019472;28;20026;-77
2023/09/18 08:31:46;;;;;;;4.43;1.88;;;;;;;19.73;100.00;100313.38;5029754;28;20024;-76
2023/09/18 08:34:11;;;;;;;5.30;2.00;;;;;;;19.85;100.00;100320.72;5029370;28;20381;-80
2023/09/18 08:36:37;;;;;;;5.00;1.85;;;;;;;19.88;100.00;100323.00;5029986;28;20025;-78
2023/09/18 08:39:07;;;;;;;2.33;1.45;;;;;;;19.92;100.00;100332.28;5030690;28;20024;-77
2023/09/18 08:41:42;;;;;;;5.63;1.80;;;;;;;19.98;100.00;100326.19;5029935;28;20095;-76
2023/09/18 08:44:09;;;;;;;4.07;1.90;;;;;;;20.01;100.00;100330.34;5030451;28;20049;-76
2023/09/18 08:46:35;;;;;;;5.30;1.80;;;;;;;20.06;100.00;100341.31;5031505;28;20112;-76
2023/09/18 08:49:04;;;;;;;3.28;1.63;;;;;;;20.15;100.00;100336.69;5046505;28;20025;-76
2023/09/18 08:51:31;;;;;;;3.97;1.83;;;;;;;20.30;100.00;100330.28;5031167;28;20068;-78
2023/09/18 08:53:56;;;;;;;4.90;1.70;;;;;;;20.37;100.00;100322.31;5030723;28;20026;-76
2023/09/18 08:56:23;;;;;;;5.03;2.05;;;;;;;20.49;100.00;100320.84;5013775;28;20509;-77
2023/09/18 08:58:48;;;;;;;4.88;2.38;;;;;;;20.68;99.04;100321.22;5015658;28;20037;-77
2023/09/18 09:01:14;;;;;;;6.60;1.92;;;;;;;20.77;98.52;100322.72;5012446;28;20034;-78
2023/09/18 09:03:45;;;;;;;2.15;1.52;;;;;;;20.92;96.91;100318.16;5014424;28;20026;-77
2023/09/18 09:06:12;;;;;;;3.03;1.70;;;;;;;20.93;97.64;100325.16;5012400;28;20029;-78
2023/09/18 09:08:38;;;;;;;2.85;2.00;;;;;;;21.05;96.91;100334.28;5014808;28;20033;-76
2023/09/18 09:11:05;;;;;;;5.07;1.92;;;;;;;21.19;96.07;100319.97;5013194;28;20045;-78
2023/09/18 09:13:31;;;;;;;3.88;1.95;;;;;;;21.33;94.82;100325.47;5014126;28;20014;-77
2023/09/18 09:15:58;;;;;;;4.32;1.92;;;;;;;21.44;94.98;100328.41;5012911;28;20454;-78
2023/09/18 09:18:28;;;;;;;3.38;2.00;;;;;;;21.43;94.24;100337.47;5012087;28;20061;-78
2023/09/18 09:20:59;;;;;;;4.65;2.03;;;;;;;21.29;94.57;100332.25;5012520;28;20022;-76
2023/09/18 09:23:29;;;;;;;4.63;2.15;;;;;;;21.21;95.30;100344.72;5011656;28;20363;-76
2023/09/18 09:26:13;;;;;;;5.55;2.35;;;;;;;21.29;96.73;100351.81;5013001;28;20084;-76
2023/09/18 09:28:39;;;;;;;6.38;2.15;;;;;;;21.26;95.95;100345.00;5016695;28;20059;-77
2023/09/18 09:31:05;;;;;;;7.82;2.92;;;;;;;21.22;94.14;100340.19;5030203;28;20489;-76
2023/09/18 09:33:31;;;;;;;4.60;2.20;;;;;;;21.35;94.87;100344.84;5030852;28;20048;-76
2023/09/18 09:35:57;;;;;;;5.65;2.47;;;;;;;21.34;93.64;100352.03;5031993;28;20104;-76
2023/09/18 09:38:33;;;;;;;5.22;2.30;;;;;;;21.34;94.19;100353.91;5031965;28;20120;-76
2023/09/18 09:41:06;;;;;;;2.88;2.00;;;;;;;21.24;94.70;100355.06;5031895;28;20057;-76
2023/09/18 09:43:33;;;;;;;5.00;2.67;;;;;;;21.19;93.99;100348.59;5032449;28;20573;-76
2023/09/18 09:46:00;;;;;;;5.15;2.60;;;;;;;21.16;93.95;100336.44;5033208;28;20059;-77
2023/09/18 09:48:27;;;;;;;5.60;2.10;;;;;;;21.21;93.11;100346.53;5032239;28;20025;-76
2023/09/18 09:50:59;;;;;;;6.28;2.10;;;;;;;21.16;93.72;100341.78;5030548;28;20099;-76
2023/09/18 09:53:51;;;;;;;4.95;2.30;;;;;;;21.23;96.08;100337.34;5032039;28;20021;-76
2023/09/18 09:56:21;;;;;;;3.88;1.95;;;;;;;21.29;92.98;100340.28;5012624;28;20029;-75
2023/09/18 09:59:07;;;;;;;7.00;2.13;;;;;;;21.30;93.56;100347.28;5013005;28;20099;-76
2023/09/18 10:01:34;;;;;;;3.80;1.95;;;;;;;21.35;92.37;100351.03;5012966;28;20030;-76
2023/09/18 10:04:04;;;;;;;9.00;2.70;;;;;;;21.33;90.54;100352.25;5028120;28;20775;-75
2023/09/18 10:06:34;;;;;;;4.25;2.22;;;;;;;21.30;90.13;100352.63;5011365;28;20517;-77
2023/09/18 10:09:00;;;;;;;6.22;2.35;;;;;;;21.34;90.67;100364.59;5013439;28;20045;-76
2023/09/18 10:11:27;;;;;;;5.72;2.47;;;;;;;21.34;90.37;100370.78;5012281;28;20052;-76
2023/09/18 10:14:04;;;;;;;6.63;2.30;;;;;;;21.34;90.25;100372.63;5011429;28;20433;-77
2023/09/18 10:16:32;;;;;;;8.13;2.25;;;;;;;21.32;90.44;100367.47;5012300;28;20467;-78
2023/09/18 10:19:21;;;;;;;3.42;2.10;;;;;;;21.39;91.46;100364.84;5012620;28;20034;-76
2023/09/18 10:22:37;;;;;;;3.75;2.10;;;;;;;21.72;92.87;100365.88;5011362;28;20032;-76
2023/09/18 10:25:19;;;;;;;4.65;2.28;;;;;;;22.03;89.58;100367.25;5014908;28;20041;-76
2023/09/18 10:27:49;;;;;;;4.60;2.25;;;;;;;21.98;86.84;100377.72;5011484;28;20030;-77
2023/09/18 10:30:18;;;;;;;6.13;2.22;;;;;;;21.93;88.60;100372.16;5028919;28;20099;-76
2023/09/18 10:32:45;;;;;;;7.75;2.60;;;;;;;21.84;88.32;100377.66;5030955;28;20551;-78
2023/09/18 10:35:12;;;;;;;6.45;2.70;;;;;;;21.70;89.31;100380.50;5032063;28;20025;-77
2023/09/18 10:37:44;;;;;;;4.97;2.60;;;;;;;21.59;89.68;100376.47;5032112;28;20029;-76
2023/09/18 10:40:10;;;;;;;6.60;2.60;;;;;;;21.55;89.77;100375.22;5031486;28;20022;-76
2023/09/18 10:42:40;;;;;;;7.63;2.83;;;;;;;21.52;88.07;100378.31;5031048;28;20053;-75
2023/09/18 10:45:12;;;;;;;7.85;3.38;;;;;;;21.40;87.95;100378.03;5046916;28;20087;-77
2023/09/18 10:47:40;;;;;;;3.83;2.83;;;;;;;21.35;90.08;100371.59;5045770;28;20025;-77
2023/09/18 10:50:08;;;;;;;6.40;2.85;;;;;;;21.36;90.94;100371.41;5031864;28;20481;-77
2023/09/18 10:52:43;;;;;;;8.43;3.05;;;;;;;21.37;91.46;100374.91;5031510;28;20120;-76
2023/09/18 10:55:12;;;;;;;8.93;2.90;;;;;;;21.37;89.23;100367.72;5019941;28;20045;-76
2023/09/18 10:57:38;;;;;;;5.63;2.70;;;;;;;21.37;88.43;100361.53;5009263;28;20025;-76
2023/09/18 11:00:13;;;;;;;5.47;2.72;;;;;;;21.35;88.21;100356.38;5010904;28;20032;-76
2023/09/18 11:02:40;;;;;;;9.30;3.00;;;;;;;21.40;88.61;100358.47;5011098;28;20022;-77
2023/09/18 11:05:08;;;;;;;4.93;2.88;;;;;;;21.49;87.09;100354.59;5010883;28;20536;-78
2023/09/18 11:07:35;;;;;;;8.00;2.60;;;;;;;21.64;86.94;100349.97;5009322;28;20033;-77
2023/09/18 11:10:29;;;;;;;6.80;2.90;;;;;;;21.93;87.92;100364.09;5009024;28;20033;-78
2023/09/18 11:13:05;;;;;;;7.32;2.92;;;;;;;22.26;87.15;100353.56;5010177;28;20033;-76
2023/09/18 11:15:33;;;;;;;5.25;2.50;;;;;;;22.57;86.20;100361.88;5011590;28;20069;-77